Time;durP1;ratioP1;P1;durP2;ratioP2;P2;SDS_P1;SDS_P2;PMS_P1;PMS_P2;Temp;Humidity;BMP_temperature;BMP_pressure;BME280_temperature;BME280_humidity;BME280_pressure;Samples;Min_cycle;Max_cycle;Signal;HPM_P1;HPM_P2
2024/02/26 00:00:54;;;;;;;25.85;16.40;;;;;;;9.82;68.21;94156.06;4232347;27;20089;-70
2024/02/26 00:02:56;;;;;;;21.13;15.88;;;;;;;9.87;68.23;94156.38;4239270;27;20070;-69
2024/02/26 00:04:59;;;;;;;21.40;15.63;;;;;;;9.89;67.78;94162.25;4242157;27;20057;-69
2024/02/26 00:07:00;;;;;;;26.40;17.00;;;;;;;9.91;68.14;94156.84;4241461;27;20058;-70
2024/02/26 00:09:05;;;;;;;23.23;16.65;;;;;;;9.92;67.84;94151.47;4240365;27;20533;-72
2024/02/26 00:11:07;;;;;;;24.25;17.58;;;;;;;9.96;67.79;94149.31;4240531;27;20090;-70
2024/02/26 00:13:09;;;;;;;24.05;16.98;;;;;;;9.99;68.18;94157.66;4238933;27;20138;-73
2024/02/26 00:15:11;;;;;;;23.77;15.93;;;;;;;10.04;67.83;94157.13;4216726;28;20089;-69
2024/02/26 00:17:13;;;;;;;23.00;16.23;;;;;;;10.07;67.64;94150.75;4227555;27;20548;-70
2024/02/26 00:19:16;;;;;;;24.52;16.40;;;;;;;10.10;67.73;94159.09;4232113;27;20108;-69
2024/02/26 00:21:19;;;;;;;24.75;17.77;;;;;;;10.12;67.74;94151.88;4217353;28;20466;-70
2024/02/26 00:23:21;;;;;;;24.15;18.58;;;;;;;10.13;67.98;94148.28;4243714;27;20155;-70
2024/02/26 00:25:23;;;;;;;23.73;17.75;;;;;;;10.20;68.27;94151.84;4232688;27;20090;-70
2024/02/26 00:27:25;;;;;;;24.98;17.67;;;;;;;10.23;68.15;94142.84;4222437;28;20483;-70
2024/02/26 00:29:27;;;;;;;24.23;17.27;;;;;;;10.26;67.94;94134.66;4243217;27;20523;-70
2024/02/26 00:31:28;;;;;;;23.33;16.65;;;;;;;10.23;67.67;94137.59;4238625;27;20043;-71
2024/02/26 00:33:30;;;;;;;22.67;17.13;;;;;;;10.21;67.96;94140.38;4232674;27;20285;-70
2024/02/26 00:35:32;;;;;;;24.75;17.60;;;;;;;10.21;68.35;94136.94;4234316;27;20051;-70
2024/02/26 00:37:35;;;;;;;22.42;16.55;;;;;;;10.19;68.29;94133.69;4241437;27;20138;-70
2024/02/26 00:39:37;;;;;;;22.17;16.63;;;;;;;10.16;68.35;94131.44;4227256;28;20048;-68
2024/02/26 00:41:42;;;;;;;24.83;17.10;;;;;;;10.19;68.64;94126.66;4235507;27;20479;-69
2024/02/26 00:43:44;;;;;;;23.88;16.52;;;;;;;10.21;68.13;94118.63;4212936;28;20056;-67
2024/02/26 00:45:47;;;;;;;22.52;16.33;;;;;;;10.23;68.28;94122.69;4239312;27;20050;-70
2024/02/26 00:47:49;;;;;;;25.02;16.90;;;;;;;10.26;67.72;94118.97;4235112;27;20051;-69
2024/02/26 00:49:51;;;;;;;24.20;16.63;;;;;;;10.23;68.22;94116.66;4234264;27;20074;-68
2024/02/26 00:51:53;;;;;;;24.60;17.60;;;;;;;10.23;67.85;94117.47;4241213;27;20287;-67
2024/02/26 00:53:55;;;;;;;28.55;17.75;;;;;;;10.21;68.30;94116.00;4232691;27;20341;-68
2024/02/26 00:56:01;;;;;;;23.60;17.92;;;;;;;10.20;68.33;94122.25;4214764;28;20122;-69
2024/02/26 00:58:03;;;;;;;26.70;17.42;;;;;;;10.23;68.24;94112.22;4243502;27;20482;-69
2024/02/26 01:00:08;;;;;;;26.20;18.13;;;;;;;10.27;68.09;94114.53;4226672;27;20051;-69
2024/02/26 01:02:10;;;;;;;24.08;17.25;;;;;;;10.29;68.40;94110.78;4248154;27;20099;-70
2024/02/26 01:04:12;;;;;;;26.85;17.38;;;;;;;10.30;68.29;94114.19;4240675;27;20130;-69
2024/02/26 01:06:14;;;;;;;21.40;17.17;;;;;;;10.28;68.03;94113.53;4244826;27;20050;-71
2024/02/26 01:08:16;;;;;;;24.08;16.70;;;;;;;10.25;68.06;94112.06;4245728;27;20511;-71
2024/02/26 01:10:18;;;;;;;24.17;17.42;;;;;;;10.22;67.52;94104.56;4228944;27;20255;-71
2024/02/26 01:12:20;;;;;;;23.05;16.88;;;;;;;10.26;67.55;94103.25;4229278;27;20047;-71
2024/02/26 01:14:22;;;;;;;23.90;16.27;;;;;;;10.24;67.27;94103.41;4247586;27;20195;-68
2024/02/26 01:16:24;;;;;;;22.77;15.40;;;;;;;10.20;67.25;94101.31;4248500;27;20066;-70
2024/02/26 01:18:25;;;;;;;22.85;16.75;;;;;;;10.18;67.54;94104.09;4247892;27;20355;-69
2024/02/26 01:20:29;;;;;;;25.52;16.75;;;;;;;10.12;67.33;94104.78;4245126;27;20058;-70
2024/02/26 01:22:31;;;;;;;21.40;16.40;;;;;;;9.87;67.78;94101.44;4233985;27;20048;-69
2024/02/26 01:24:33;;;;;;;23.40;16.75;;;;;;;9.77;68.50;94101.63;4244476;27;20135;-70
2024/02/26 01:26:35;;;;;;;23.38;15.30;;;;;;;9.76;68.98;94105.22;4242705;27;20404;-70
2024/02/26 01:28:37;;;;;;;21.65;15.93;;;;;;;9.81;68.48;94112.59;4219318;27;20044;-71
2024/02/26 01:30:38;;;;;;;23.00;15.80;;;;;;;9.89;67.99;94099.47;4244103;27;20097;-69
2024/02/26 01:32:40;;;;;;;20.65;15.60;;;;;;;9.93;68.28;94095.53;4219757;28;20118;-70
2024/02/26 01:34:43;;;;;;;22.50;14.68;;;;;;;9.94;67.46;94091.13;4240205;27;20556;-68
2024/02/26 01:36:45;;;;;;;18.92;14.63;;;;;;;9.94;67.83;94098.97;4229813;27;20051;-69
2024/02/26 01:38:47;;;;;;;19.73;15.50;;;;;;;9.95;67.58;94093.56;4247685;27;20051;-69
2024/02/26 01:40:49;;;;;;;20.30;15.98;;;;;;;10.02;67.50;94093.69;4248028;27;20047;-69
2024/02/26 01:42:52;;;;;;;22.48;16.85;;;;;;;10.10;67.66;94096.28;4239567;27;20470;-69
2024/02/26 01:44:54;;;;;;;26.98;15.45;;;;;;;10.17;66.91;94094.59;4243858;27;20043;-70
2024/02/26 01:46:56;;;;;;;20.58;14.82;;;;;;;10.18;66.33;94093.63;4246136;27;20039;-71
2024/02/26 01:48:58;;;;;;;22.33;16.13;;;;;;;10.19;66.55;94086.56;4231533;27;20052;-71
2024/02/26 01:51:00;;;;;;;24.00;16.52;;;;;;;10.16;66.71;94082.50;4240711;27;20069;-70
2024/02/26 01:53:02;;;;;;;21.05;15.88;;;;;;;10.18;67.00;94087.56;4229224;28;20112;-68
2024/02/26 01:55:04;;;;;;;22.45;16.65;;;;;;;10.20;66.90;94088.22;4227717;28;20048;-70
2024/02/26 01:57:06;;;;;;;22.95;15.68;;;;;;;10.25;67.06;94089.31;4241349;27;20264;-70
2024/02/26 01:59:08;;;;;;;24.20;16.23;;;;;;;10.30;66.69;94086.22;4227567;28;20059;-68
2024/02/26 02:01:11;;;;;;;24.83;17.85;;;;;;;10.33;66.58;94085.06;4229531;27;20063;-69
2024/02/26 02:03:13;;;;;;;23.30;17.33;;;;;;;10.37;66.31;94091.59;4244166;27;20482;-68
2024/02/26 02:05:17;;;;;;;27.30;18.98;;;;;;;10.32;66.74;94083.44;4245626;27;20043;-68
2024/02/26 02:07:20;;;;;;;25.48;17.27;;;;;;;10.29;66.88;94075.91;4245165;27;20046;-69
2024/02/26 02:09:23;;;;;;;22.95;18.13;;;;;;;10.25;66.59;94088.50;4227165;28;20039;-70
2024/02/26 02:11:25;;;;;;;24.50;17.23;;;;;;;10.15;67.11;94087.91;4238919;27;20044;-70
2024/02/26 02:13:27;;;;;;;24.73;18.00;;;;;;;10.16;67.54;94089.53;4218824;28;20656;-68
2024/02/26 02:15:29;;;;;;;21.88;18.23;;;;;;;10.23;67.16;94085.25;4240690;27;20053;-70
2024/02/26 02:17:31;;;;;;;25.23;18.80;;;;;;;10.25;66.83;94084.09;4223559;28;20048;-70
2024/02/26 02:19:33;;;;;;;27.67;19.52;;;;;;;10.34;67.14;94078.84;4226247;28;20166;-69
2024/02/26 02:21:35;;;;;;;24.67;19.52;;;;;;;10.37;66.58;94081.94;4238279;27;20048;-70
2024/02/26 02:23:37;;;;;;;24.08;19.05;;;;;;;10.39;66.49;94074.72;4240983;27;20126;-69
2024/02/26 02:25:39;;;;;;;27.23;19.15;;;;;;;10.41;66.36;94085.00;4220742;28;20133;-70
2024/02/26 02:27:42;;;;;;;24.27;18.08;;;;;;;10.42;66.57;94084.84;4239174;27;20139;-71
2024/02/26 02:29:44;;;;;;;24.85;17.90;;;;;;;10.40;66.64;94080.78;4204948;28;20397;-68
2024/02/26 02:31:46;;;;;;;23.23;18.00;;;;;;;10.39;66.93;94076.50;4236546;27;20477;-71
2024/02/26 02:33:48;;;;;;;21.20;18.05;;;;;;;10.34;66.56;94076.22;4245373;27;20047;-68
2024/02/26 02:35:52;;;;;;;24.83;18.20;;;;;;;10.27;67.00;94070.84;4224658;28;20050;-69
2024/02/26 02:37:56;;;;;;;;;;;;;;;10.22;67.27;94068.72;4244000;27;20059;-69
2024/02/26 02:39:58;;;;;;;26.75;18.83;;;;;;;10.20;67.64;94078.56;4245247;27;19948;-68
2024/02/26 02:41:59;;;;;;;23.13;18.35;;;;;;;10.19;67.92;94092.63;4235780;27;20043;-70
2024/02/26 02:44:02;;;;;;;23.88;19.02;;;;;;;10.21;67.44;94090.66;4232489;27;20357;-69
2024/02/26 02:46:04;;;;;;;26.25;19.33;;;;;;;10.20;67.82;94077.75;4224860;27;20050;-69
2024/02/26 02:48:06;;;;;;;25.08;19.02;;;;;;;10.23;67.72;94080.00;4244523;27;20386;-69
2024/02/26 02:50:09;;;;;;;26.63;19.70;;;;;;;10.21;67.08;94088.03;4240062;27;20112;-68
2024/02/26 02:52:10;;;;;;;26.90;20.30;;;;;;;10.11;67.56;94090.06;4233566;27;20146;-70
2024/02/26 02:54:16;;;;;;;23.02;19.63;;;;;;;10.05;68.14;94093.38;4240480;27;20092;-68
2024/02/26 02:56:19;;;;;;;26.33;19.88;;;;;;;10.08;67.99;94103.47;4244649;27;20563;-68
2024/02/26 02:58:21;;;;;;;30.63;19.83;;;;;;;10.14;67.96;94105.41;4231924;27;20115;-69
2024/02/26 03:00:23;;;;;;;25.75;20.30;;;;;;;10.20;68.41;94091.66;4243334;27;20047;-68
2024/02/26 03:02:26;;;;;;;25.27;18.88;;;;;;;10.23;68.22;94088.66;4240018;27;20076;-68
2024/02/26 03:04:29;;;;;;;28.55;20.23;;;;;;;10.28;67.91;94085.53;4220306;28;20074;-71
2024/02/26 03:06:31;;;;;;;26.20;20.85;;;;;;;10.33;67.45;94087.69;4233447;27;20483;-69
2024/02/26 03:08:36;;;;;;;26.02;20.13;;;;;;;10.32;67.62;94094.72;4245263;27;20568;-70
2024/02/26 03:10:38;;;;;;;23.00;19.15;;;;;;;10.33;67.70;94090.31;4242524;27;20153;-69
2024/02/26 03:12:40;;;;;;;23.92;18.73;;;;;;;10.38;67.62;94090.59;4243582;27;20051;-70
2024/02/26 03:14:42;;;;;;;29.33;19.25;;;;;;;10.42;67.92;94094.50;4241190;27;20130;-69
2024/02/26 03:16:44;;;;;;;23.85;18.90;;;;;;;10.42;67.77;94092.69;4244256;27;20179;-68
2024/02/26 03:18:46;;;;;;;27.48;19.60;;;;;;;10.43;67.73;94094.34;4238867;27;20051;-69
2024/02/26 03:20:49;;;;;;;24.52;18.92;;;;;;;10.48;67.44;94093.81;4231885;27;20043;-70
2024/02/26 03:22:51;;;;;;;23.33;18.25;;;;;;;10.50;67.77;94091.03;4235932;27;20395;-70
2024/02/26 03:24:53;;;;;;;23.63;19.27;;;;;;;10.48;67.14;94083.34;4236729;27;20047;-69
2024/02/26 03:26:55;;;;;;;27.45;19.85;;;;;;;10.53;67.36;94080.19;4242805;27;20054;-69
2024/02/26 03:28:57;;;;;;;26.65;20.50;;;;;;;10.46;67.42;94074.84;4243753;27;20139;-69
2024/02/26 03:31:00;;;;;;;26.73;19.73;;;;;;;10.40;67.57;94075.53;4215665;28;20131;-70
2024/02/26 03:33:02;;;;;;;25.70;18.98;;;;;;;10.36;67.87;94069.00;4236190;27;20074;-70
2024/02/26 03:35:06;;;;;;;24.58;19.35;;;;;;;10.32;68.22;94071.16;4243381;27;20054;-69
2024/02/26 03:37:10;;;;;;;24.50;19.73;;;;;;;10.32;67.80;94067.72;4244032;27;20462;-70
2024/02/26 03:39:12;;;;;;;23.45;18.65;;;;;;;10.35;67.58;94070.81;4224224;28;20282;-69
2024/02/26 03:41:15;;;;;;;24.48;18.27;;;;;;;10.38;67.54;94067.84;4216817;28;20171;-70
2024/02/26 03:43:17;;;;;;;22.85;18.90;;;;;;;10.40;67.83;94078.16;4241004;27;20054;-70
2024/02/26 03:45:19;;;;;;;25.77;19.05;;;;;;;10.37;67.74;94081.13;4233257;27;20083;-70
2024/02/26 03:47:20;;;;;;;22.80;18.90;;;;;;;10.42;67.78;94078.78;4222763;28;20078;-68
2024/02/26 03:49:23;;;;;;;24.65;19.05;;;;;;;10.43;68.18;94075.19;4241676;27;20067;-70
2024/02/26 03:51:26;;;;;;;28.30;21.65;;;;;;;10.43;67.91;94060.31;4222921;28;20051;-70
2024/02/26 03:53:28;;;;;;;27.75;20.48;;;;;;;10.45;68.08;94049.63;4240892;27;20522;-70
2024/02/26 03:55:30;;;;;;;29.10;22.50;;;;;;;10.40;68.35;94059.81;4223227;28;20387;-69
2024/02/26 03:57:32;;;;;;;28.65;22.13;;;;;;;10.33;68.30;94062.31;4236515;27;20082;-70
2024/02/26 03:59:34;;;;;;;28.38;22.98;;;;;;;10.30;68.38;94062.66;4217333;28;20468;-70
2024/02/26 04:01:35;;;;;;;27.67;22.63;;;;;;;10.30;68.69;94061.84;4241298;27;20150;-67
2024/02/26 04:03:39;;;;;;;29.38;21.65;;;;;;;10.28;69.04;94066.41;4234029;27;20624;-68
2024/02/26 04:05:41;;;;;;;27.02;23.13;;;;;;;10.28;68.82;94061.97;4238129;27;20483;-70
2024/02/26 04:07:43;;;;;;;29.08;23.00;;;;;;;10.30;69.10;94060.03;4213032;28;20052;-71
2024/02/26 04:09:45;;;;;;;30.30;24.25;;;;;;;10.13;69.40;94048.00;4240767;27;20662;-70
2024/02/26 04:11:47;;;;;;;30.40;24.65;;;;;;;9.81;70.46;94058.47;4234676;27;20068;-70
2024/02/26 04:13:52;;;;;;;29.52;24.08;;;;;;;9.79;71.28;94057.00;4242752;27;20062;-70
2024/02/26 04:15:54;;;;;;;33.33;23.02;;;;;;;9.86;70.69;94063.19;4241679;27;20038;-70
2024/02/26 04:17:56;;;;;;;32.85;22.33;;;;;;;9.90;71.24;94056.63;4237294;27;20039;-70
2024/02/26 04:19:58;;;;;;;30.38;23.10;;;;;;;9.99;70.52;94054.78;4243316;27;20127;-67
2024/02/26 04:22:00;;;;;;;31.45;24.38;;;;;;;10.04;70.29;94042.00;4242339;27;20078;-69
2024/02/26 04:24:02;;;;;;;31.73;25.27;;;;;;;10.05;70.05;94041.03;4215317;28;20069;-70
2024/02/26 04:26:05;;;;;;;33.08;25.40;;;;;;;10.06;70.43;94050.50;4242227;27;20050;-70
2024/02/26 04:28:07;;;;;;;30.45;25.20;;;;;;;10.08;69.92;94045.91;4243172;27;20058;-71
2024/02/26 04:30:09;;;;;;;27.52;23.00;;;;;;;10.10;70.05;94043.94;4216219;28;20059;-71
2024/02/26 04:32:11;;;;;;;33.40;24.98;;;;;;;10.13;70.22;94043.59;4214441;28;20051;-70
2024/02/26 04:34:13;;;;;;;34.35;24.42;;;;;;;10.16;70.33;94042.44;4235815;27;20129;-69
2024/02/26 04:36:16;;;;;;;34.42;24.55;;;;;;;10.22;69.95;94052.22;4229619;27;20074;-71
2024/02/26 04:38:18;;;;;;;30.08;23.67;;;;;;;10.24;70.07;94040.59;4242421;27;20047;-69
2024/02/26 04:40:20;;;;;;;32.35;23.83;;;;;;;10.29;69.75;94052.34;4241946;27;20065;-70
2024/02/26 04:42:22;;;;;;;28.50;22.52;;;;;;;10.27;69.14;94049.88;4242729;27;20084;-69
2024/02/26 04:44:23;;;;;;;30.95;22.75;;;;;;;10.27;69.36;94049.09;4243030;27;20065;-71
2024/02/26 04:46:25;;;;;;;31.30;24.88;;;;;;;10.25;69.23;94055.28;4239407;27;20092;-70
2024/02/26 04:48:27;;;;;;;31.15;25.17;;;;;;;10.25;69.21;94051.88;4240267;27;20195;-70
2024/02/26 04:50:29;;;;;;;32.15;24.98;;;;;;;10.20;69.15;94052.38;4243324;27;20051;-71
2024/02/26 04:52:31;;;;;;;32.17;24.90;;;;;;;10.01;70.20;94060.66;4240274;27;20463;-67
2024/02/26 04:54:33;;;;;;;33.65;25.75;;;;;;;9.91;70.48;94055.63;4237949;27;20043;-70
2024/02/26 04:56:35;;;;;;;38.85;26.98;;;;;;;9.83;71.02;94063.53;4239972;27;20134;-71
2024/02/26 04:58:37;;;;;;;36.35;27.48;;;;;;;9.86;71.57;94067.59;4233312;28;20065;-70
2024/02/26 05:00:38;;;;;;;35.83;26.17;;;;;;;9.91;71.13;94065.28;4239050;28;20270;-70
2024/02/26 05:02:40;;;;;;;34.30;27.90;;;;;;;9.77;70.78;94054.56;4239842;28;20085;-70
2024/02/26 05:04:42;;;;;;;37.00;27.83;;;;;;;9.66;71.73;94062.78;4234710;28;20074;-71
2024/02/26 05:06:44;;;;;;;37.53;28.70;;;;;;;9.58;72.57;94065.41;4242682;28;20043;-70
2024/02/26 05:08:46;;;;;;;31.50;26.45;;;;;;;9.64;72.08;94073.41;4240380;28;20252;-72
2024/02/26 05:10:48;;;;;;;34.63;27.23;;;;;;;9.70;71.69;94077.16;4229496;28;20060;-72
2024/02/26 05:12:50;;;;;;;38.80;26.83;;;;;;;9.80;71.66;94079.56;4242630;28;20048;-71
2024/02/26 05:14:52;;;;;;;38.25;27.23;;;;;;;9.90;71.81;94082.78;4221802;28;20105;-71
2024/02/26 05:16:54;;;;;;;37.45;28.30;;;;;;;9.96;71.32;94079.50;4242980;28;20039;-67
2024/02/26 05:18:56;;;;;;;34.80;29.55;;;;;;;9.67;71.32;94090.53;4242080;28;20051;-69
2024/02/26 05:20:58;;;;;;;39.95;30.90;;;;;;;9.31;72.38;94096.19;4239126;28;20191;-70
2024/02/26 05:23:00;;;;;;;41.38;30.25;;;;;;;9.24;73.67;94095.22;4240533;28;20058;-71
2024/02/26 05:25:03;;;;;;;36.85;31.20;;;;;;;9.32;73.84;94102.25;4216947;28;20048;-71
2024/02/26 05:27:05;;;;;;;42.15;31.65;;;;;;;9.37;72.90;94100.75;4237519;28;20077;-72
2024/02/26 05:29:07;;;;;;;38.20;31.52;;;;;;;9.31;72.58;94100.59;4238350;28;20077;-69
2024/02/26 05:31:12;;;;;;;47.60;33.53;;;;;;;9.09;73.60;94107.31;4238456;28;20554;-69
2024/02/26 05:33:14;;;;;;;41.67;34.35;;;;;;;8.90;75.26;94108.47;4238861;28;20648;-70
2024/02/26 05:35:20;;;;;;;45.10;36.80;;;;;;;8.79;75.50;94118.25;4243056;28;20104;-69
2024/02/26 05:37:22;;;;;;;43.90;33.97;;;;;;;8.44;76.23;94119.34;4223408;28;20125;-70
2024/02/26 05:39:24;;;;;;;40.85;33.55;;;;;;;8.43;76.53;94117.72;4237830;28;20050;-69
2024/02/26 05:41:26;;;;;;;48.15;34.90;;;;;;;8.29;77.30;94115.72;4226870;28;20047;-71
2024/02/26 05:43:28;;;;;;;47.33;37.97;;;;;;;8.37;77.19;94119.16;4239361;28;20043;-70
2024/02/26 05:45:30;;;;;;;48.65;39.40;;;;;;;8.39;77.19;94117.19;4239338;27;20048;-71
2024/02/26 05:47:33;;;;;;;56.58;42.22;;;;;;;8.41;76.88;94119.69;4238518;27;20131;-69
2024/02/26 05:49:35;;;;;;;49.30;39.53;;;;;;;8.46;77.23;94117.41;4242574;27;20046;-69
2024/02/26 05:51:37;;;;;;;46.63;35.97;;;;;;;8.33;76.88;94125.66;4245721;27;20059;-68
2024/02/26 05:53:40;;;;;;;48.17;38.15;;;;;;;8.27;76.69;94126.28;4242724;27;20047;-69
2024/02/26 05:55:42;;;;;;;44.70;36.17;;;;;;;8.35;77.29;94121.09;4243569;27;20502;-70
2024/02/26 05:57:44;;;;;;;44.92;35.15;;;;;;;8.51;76.58;94112.50;4239339;27;20058;-68
2024/02/26 05:59:46;;;;;;;48.53;35.72;;;;;;;8.77;76.57;94120.22;4245919;27;20478;-70
2024/02/26 06:01:48;;;;;;;42.05;34.33;;;;;;;8.98;76.07;94118.91;4224200;28;20104;-69
2024/02/26 06:03:51;;;;;;;45.85;34.70;;;;;;;9.17;74.56;94117.78;4221832;28;20481;-70
2024/02/26 06:05:53;;;;;;;43.58;33.78;;;;;;;9.31;74.31;94122.31;4244356;27;20059;-68
2024/02/26 06:07:55;;;;;;;45.22;33.05;;;;;;;9.43;72.99;94128.84;4243425;27;20040;-70
2024/02/26 06:09:57;;;;;;;43.03;35.35;;;;;;;9.54;73.13;94130.28;4244901;27;20043;-70
2024/02/26 06:11:59;;;;;;;40.78;32.80;;;;;;;9.66;72.46;94132.56;4244767;27;20085;-69
2024/02/26 06:14:01;;;;;;;41.33;33.28;;;;;;;9.72;72.40;94137.13;4243865;27;20055;-69
2024/02/26 06:16:05;;;;;;;45.88;33.08;;;;;;;9.78;71.82;94128.59;4240813;27;20120;-70
2024/02/26 06:18:07;;;;;;;43.22;31.05;;;;;;;9.84;72.09;94131.38;4244671;27;20505;-72
2024/02/26 06:20:12;;;;;;;45.00;33.80;;;;;;;9.91;71.51;94133.31;4243538;27;20134;-68
2024/02/26 06:22:14;;;;;;;39.20;31.38;;;;;;;9.96;71.25;94131.84;4243008;27;20091;-71
2024/02/26 06:24:16;;;;;;;41.65;31.70;;;;;;;10.01;71.40;94133.94;4239276;27;20062;-71
2024/02/26 06:26:18;;;;;;;40.65;30.90;;;;;;;10.08;71.09;94123.59;4237553;27;20416;-68
2024/02/26 06:28:20;;;;;;;34.72;29.15;;;;;;;10.13;71.06;94124.75;4223758;28;20051;-70
2024/02/26 06:30:22;;;;;;;37.92;29.38;;;;;;;10.17;70.88;94127.81;4236925;27;20054;-69
2024/02/26 06:32:23;;;;;;;36.63;29.50;;;;;;;10.22;70.85;94122.91;4244797;27;20039;-70
2024/02/26 06:34:25;;;;;;;37.72;30.70;;;;;;;10.25;70.36;94127.78;4225656;28;20051;-72
2024/02/26 06:36:28;;;;;;;40.63;31.67;;;;;;;10.31;70.58;94140.22;4244458;27;20484;-69
2024/02/26 06:38:29;;;;;;;38.38;31.42;;;;;;;10.33;70.34;94132.19;4242799;27;20050;-70
2024/02/26 06:40:31;;;;;;;37.78;31.80;;;;;;;10.19;69.71;94126.66;4241833;27;20069;-70
2024/02/26 06:42:33;;;;;;;39.22;32.03;;;;;;;10.07;70.63;94132.44;4224325;28;20159;-69
2024/02/26 06:44:35;;;;;;;41.58;29.60;;;;;;;9.99;71.24;94130.66;4236178;27;20131;-70
2024/02/26 06:46:37;;;;;;;42.97;31.17;;;;;;;10.00;71.23;94135.75;4244168;27;20103;-72
2024/02/26 06:48:39;;;;;;;41.40;28.90;;;;;;;9.92;71.35;94138.38;4243333;27;20471;-69
2024/02/26 06:50:41;;;;;;;39.90;28.55;;;;;;;9.96;71.75;94126.59;4244659;27;20047;-70
2024/02/26 06:52:45;;;;;;;36.95;27.80;;;;;;;10.02;71.10;94131.16;4214311;28;20048;-70
2024/02/26 06:54:48;;;;;;;39.28;27.88;;;;;;;10.09;71.17;94136.53;4242292;27;20100;-72
2024/02/26 06:56:50;;;;;;;31.73;25.57;;;;;;;10.13;70.48;94135.22;4223410;28;20119;-71
2024/02/26 06:58:52;;;;;;;30.90;24.20;;;;;;;10.24;70.29;94128.78;4244829;27;20140;-71
2024/02/26 07:00:54;;;;;;;35.38;25.08;;;;;;;10.16;69.43;94129.63;4235096;27;20108;-71
2024/02/26 07:02:56;;;;;;;32.08;24.48;;;;;;;10.14;70.12;94128.97;4243092;27;20059;-72
2024/02/26 07:04:58;;;;;;;32.05;22.15;;;;;;;10.14;69.90;94139.44;4237064;27;20054;-74
2024/02/26 07:07:00;;;;;;;31.02;21.38;;;;;;;10.21;69.77;94134.34;4244674;27;20078;-69
2024/02/26 07:09:02;;;;;;;31.00;19.02;;;;;;;10.18;68.82;94137.31;4221964;28;20534;-71
2024/02/26 07:11:08;;;;;;;29.60;20.58;;;;;;;10.10;69.11;94132.09;4243320;27;20133;-70
2024/02/26 07:13:10;;;;;;;28.35;21.15;;;;;;;10.07;69.78;94141.13;4243521;27;20472;-69
2024/02/26 07:15:12;;;;;;;26.30;20.33;;;;;;;10.08;69.58;94144.53;4241447;27;20134;-72
2024/02/26 07:17:16;;;;;;;26.55;18.33;;;;;;;10.14;69.90;94147.28;4236651;27;20122;-73
2024/02/26 07:19:17;;;;;;;29.65;20.00;;;;;;;10.20;69.47;94149.22;4236224;27;20092;-71
2024/02/26 07:21:19;;;;;;;26.80;19.48;;;;;;;10.21;68.76;94150.84;4238019;27;20047;-71
2024/02/26 07:23:21;;;;;;;31.25;19.30;;;;;;;10.14;68.95;94144.69;4240656;27;20043;-70
2024/02/26 07:25:24;;;;;;;31.10;19.15;;;;;;;10.17;69.05;94153.97;4224281;28;20122;-70
2024/02/26 07:27:25;;;;;;;23.80;19.00;;;;;;;10.21;68.91;94150.84;4244072;27;20142;-72
2024/02/26 07:29:27;;;;;;;26.85;18.88;;;;;;;10.23;68.73;94150.69;4241724;27;20495;-72
2024/02/26 07:31:30;;;;;;;27.25;18.77;;;;;;;10.25;68.78;94144.28;4216505;28;20113;-71
2024/02/26 07:33:31;;;;;;;26.10;17.92;;;;;;;10.29;68.53;94141.34;4242860;27;20108;-71
2024/02/26 07:35:33;;;;;;;25.60;19.17;;;;;;;10.42;68.49;94142.44;4243685;27;20046;-71
2024/02/26 07:37:35;;;;;;;31.33;19.40;;;;;;;10.55;68.13;94152.38;4211164;28;20546;-72
2024/02/26 07:39:37;;;;;;;29.38;19.98;;;;;;;10.60;68.02;94155.31;4239314;27;20047;-70
2024/02/26 07:41:39;;;;;;;27.67;20.63;;;;;;;10.72;67.62;94150.47;4242567;27;20132;-69
2024/02/26 07:43:41;;;;;;;26.52;19.67;;;;;;;10.77;67.46;94160.44;4233691;27;20080;-74
2024/02/26 07:45:43;;;;;;;32.47;19.92;;;;;;;10.76;66.87;94153.56;4237117;27;20047;-71
2024/02/26 07:47:46;;;;;;;27.40;19.52;;;;;;;10.82;66.89;94145.03;4240367;27;20142;-71
2024/02/26 07:49:48;;;;;;;27.58;18.60;;;;;;;10.88;66.78;94146.91;4226068;28;20043;-70
2024/02/26 07:51:51;;;;;;;34.90;19.98;;;;;;;10.91;66.44;94154.44;4238564;27;20046;-72
2024/02/26 07:53:53;;;;;;;30.00;19.67;;;;;;;10.85;66.50;94149.91;4219345;28;20078;-70
2024/02/26 07:55:55;;;;;;;30.67;19.90;;;;;;;10.78;66.66;94154.22;4223641;28;20526;-71
2024/02/26 07:57:56;;;;;;;30.38;20.23;;;;;;;10.81;66.99;94161.72;4237632;27;20074;-70
2024/02/26 07:59:58;;;;;;;31.73;22.88;;;;;;;10.84;67.08;94151.72;4241457;27;20499;-70
2024/02/26 08:02:02;;;;;;;33.65;24.85;;;;;;;10.89;66.86;94150.38;4242538;27;20082;-71
2024/02/26 08:04:04;;;;;;;;;;;;;;;10.97;66.70;94147.69;4243593;27;20043;-72
2024/02/26 08:06:08;;;;;;;35.63;23.55;;;;;;;11.03;66.98;94141.75;4242214;27;19923;-71
2024/02/26 08:08:10;;;;;;;57.10;30.75;;;;;;;10.52;68.39;94141.41;4237632;27;20047;-74
2024/02/26 08:10:12;;;;;;;46.85;33.53;;;;;;;10.31;69.39;94147.25;4241053;27;20531;-73
2024/02/26 08:12:14;;;;;;;48.17;33.53;;;;;;;10.16;70.51;94147.94;4238452;27;20053;-70
2024/02/26 08:14:16;;;;;;;52.25;34.53;;;;;;;10.07;71.04;94148.97;4243434;27;20440;-73
2024/02/26 08:16:18;;;;;;;53.55;38.15;;;;;;;9.84;71.59;94141.81;4240412;27;20073;-72
2024/02/26 08:18:20;;;;;;;57.05;38.25;;;;;;;9.66;72.34;94143.00;4236152;27;20054;-68
2024/02/26 08:20:22;;;;;;;58.08;39.75;;;;;;;9.40;73.05;94149.28;4243308;27;20387;-71
2024/02/26 08:22:24;;;;;;;51.03;38.70;;;;;;;9.39;73.76;94143.22;4239982;27;20066;-72
2024/02/26 08:24:25;;;;;;;53.40;40.05;;;;;;;9.44;73.66;94142.72;4241923;27;20230;-70
2024/02/26 08:26:27;;;;;;;65.05;41.30;;;;;;;9.47;73.80;94136.38;4242797;27;20061;-72
2024/02/26 08:28:29;;;;;;;53.25;39.92;;;;;;;9.68;73.01;94144.50;4236022;27;20047;-71
2024/02/26 08:30:31;;;;;;;58.22;38.72;;;;;;;9.65;72.41;94136.97;4230949;27;20490;-71
2024/02/26 08:32:33;;;;;;;55.95;40.38;;;;;;;9.84;72.58;94144.44;4237716;27;20166;-72
2024/02/26 08:34:35;;;;;;;66.35;40.33;;;;;;;9.83;71.85;94145.44;4229923;27;20078;-71
2024/02/26 08:36:37;;;;;;;67.05;40.58;;;;;;;9.87;71.24;94134.63;4243104;27;20057;-71
2024/02/26 08:38:39;;;;;;;57.00;42.03;;;;;;;9.95;71.24;94140.66;4232784;27;20364;-71
2024/02/26 08:40:41;;;;;;;54.80;41.20;;;;;;;9.96;71.51;94139.69;4235647;27;20112;-71
2024/02/26 08:42:43;;;;;;;62.13;39.50;;;;;;;9.92;71.46;94141.00;4225211;28;20119;-70
2024/02/26 08:44:45;;;;;;;49.53;35.38;;;;;;;10.13;70.75;94142.22;4243371;27;20712;-70
2024/02/26 08:46:46;;;;;;;49.50;36.42;;;;;;;10.39;70.28;94134.09;4239948;27;20503;-70
2024/02/26 08:48:49;;;;;;;61.20;41.50;;;;;;;10.56;69.56;94138.31;4235715;27;20055;-71
2024/02/26 08:50:52;;;;;;;71.10;52.53;;;;;;;10.40;69.96;94138.38;4230084;28;20474;-71
2024/02/26 08:52:54;;;;;;;67.18;47.42;;;;;;;10.35;69.75;94138.88;4214969;28;20051;-71
2024/02/26 08:54:56;;;;;;;57.10;39.55;;;;;;;10.51;69.61;94135.34;4240139;27;20451;-71
2024/02/26 08:56:58;;;;;;;58.47;39.33;;;;;;;10.43;69.69;94148.50;4220548;28;20123;-69
2024/02/26 08:59:03;;;;;;;53.28;37.17;;;;;;;10.58;69.41;94140.72;4237477;28;20043;-69
2024/02/26 09:01:05;;;;;;;54.03;35.33;;;;;;;10.77;69.04;94132.41;4233880;28;20047;-70
2024/02/26 09:03:07;;;;;;;53.17;35.72;;;;;;;11.01;68.68;94136.69;4233338;28;20649;-71
2024/02/26 09:05:10;;;;;;;54.70;36.25;;;;;;;11.23;67.88;94134.22;4233370;28;20050;-71
2024/02/26 09:07:11;;;;;;;47.72;34.63;;;;;;;11.38;67.04;94121.97;4214281;28;20044;-73
2024/02/26 09:09:13;;;;;;;51.13;35.17;;;;;;;11.52;66.66;94122.16;4239708;28;20209;-71
2024/02/26 09:11:15;;;;;;;54.58;36.80;;;;;;;11.52;65.90;94122.16;4232432;28;20047;-71
2024/02/26 09:13:18;;;;;;;58.55;35.60;;;;;;;11.32;66.87;94122.66;4224296;28;20524;-71
2024/02/26 09:15:20;;;;;;;40.83;27.35;;;;;;;11.30;66.23;94119.41;4242713;28;20213;-70
2024/02/26 09:17:22;;;;;;;72.38;41.33;;;;;;;11.34;66.58;94118.06;4233565;28;20058;-70
2024/02/26 09:19:27;;;;;;;63.53;36.00;;;;;;;11.57;66.75;94122.44;4203687;28;20040;-72
2024/02/26 09:21:30;;;;;;;50.05;30.52;;;;;;;11.75;65.34;94124.72;4232630;27;20050;-72
2024/02/26 09:23:32;;;;;;;29.15;16.65;;;;;;;11.61;63.95;94121.88;4246317;27;20100;-71